createdAt,value
2023-05-05T00:02:27.650Z,5.55
2023-05-05T00:05:15.104Z,5.88
2023-05-05T00:08:04.504Z,5.85
2023-05-05T00:10:53.044Z,6.53
2023-05-05T00:13:40.739Z,6.05
2023-05-05T00:16:30.520Z,6.32
2023-05-05T00:19:17.783Z,6.20
2023-05-05T00:22:07.386Z,6.05
2023-05-05T00:24:54.555Z,5.75
2023-05-05T00:27:44.207Z,6.18
2023-05-05T00:30:31.839Z,6.15
2023-05-05T00:33:21.596Z,6.43
2023-05-05T00:36:09.383Z,5.80
2023-05-05T00:38:59.232Z,5.90
2023-05-05T00:41:46.294Z,6.00
2023-05-05T00:44:41.686Z,5.85
2023-05-05T00:47:29.334Z,5.88
2023-05-05T00:50:25.943Z,5.50
2023-05-05T00:53:13.812Z,5.50
2023-05-05T00:56:01.056Z,5.78
2023-05-05T00:58:50.850Z,8.55
2023-05-05T01:01:38.312Z,8.95
2023-05-05T01:04:28.036Z,7.90
2023-05-05T01:07:17.981Z,7.03
2023-05-05T01:10:33.136Z,6.35
2023-05-05T01:13:53.384Z,6.28
2023-05-05T01:16:59.754Z,6.75
2023-05-05T01:19:59.114Z,7.47
2023-05-05T01:22:47.681Z,7.50
2023-05-05T01:26:05.360Z,6.60
2023-05-05T01:29:20.904Z,6.43
2023-05-05T01:32:16.678Z,6.82
2023-05-05T01:35:14.243Z,6.07
2023-05-05T01:38:17.235Z,6.55
2023-05-05T01:41:30.306Z,5.78
2023-05-05T01:47:06.896Z,5.78
2023-05-05T01:49:54.649Z,5.68
2023-05-05T01:52:46.388Z,7.20
2023-05-05T01:55:35.001Z,8.57
2023-05-05T01:58:23.667Z,7.07
2023-05-05T02:01:12.726Z,5.68
2023-05-05T02:04:04.649Z,6.15
2023-05-05T02:06:53.473Z,6.13
2023-05-05T02:09:42.557Z,5.05
2023-05-05T02:12:34.278Z,5.72
2023-05-05T02:15:25.766Z,3.93
2023-05-05T02:18:16.489Z,5.28
2023-05-05T02:21:04.611Z,5.75
2023-05-05T02:23:52.696Z,5.78
2023-05-05T02:26:42.292Z,5.35
2023-05-05T02:29:41.461Z,6.15
2023-05-05T02:32:36.826Z,5.55
2023-05-05T02:35:37.412Z,5.22
2023-05-05T02:38:29.402Z,5.88
2023-05-05T02:41:22.049Z,6.78
2023-05-05T02:44:12.860Z,5.60
2023-05-05T02:47:00.055Z,5.82
2023-05-05T02:49:49.527Z,5.70
2023-05-05T02:52:37.171Z,5.72
2023-05-05T02:55:26.073Z,5.55
2023-05-05T02:58:24.715Z,6.32
2023-05-05T03:01:32.582Z,5.70
2023-05-05T03:04:30.748Z,5.90
2023-05-05T03:08:00.308Z,5.57
2023-05-05T03:11:08.929Z,5.30
2023-05-05T03:14:18.656Z,5.22
2023-05-05T03:17:06.947Z,5.22
2023-05-05T03:19:54.933Z,5.53
2023-05-05T03:22:42.077Z,5.25
2023-05-05T03:25:49.274Z,5.57
2023-05-05T03:28:36.441Z,5.72
2023-05-05T03:31:26.091Z,6.20
2023-05-05T03:34:13.404Z,5.80
2023-05-05T03:37:00.986Z,6.32
2023-05-05T03:39:50.417Z,6.18
2023-05-05T03:42:37.635Z,5.85
2023-05-05T03:45:25.235Z,5.75
2023-05-05T03:48:12.460Z,5.57
2023-05-05T03:51:01.845Z,5.35
2023-05-05T03:53:49.023Z,6.10
2023-05-05T03:56:36.263Z,5.72
2023-05-05T03:59:23.487Z,5.93
2023-05-05T04:02:10.674Z,5.97
2023-05-05T04:04:58.296Z,5.15
2023-05-05T04:07:45.539Z,4.68
2023-05-05T04:10:32.900Z,4.65
2023-05-05T04:13:20.234Z,5.07
2023-05-05T04:16:08.962Z,4.88
2023-05-05T04:18:56.146Z,4.80
2023-05-05T04:21:43.920Z,4.50
2023-05-05T04:24:31.249Z,4.82
2023-05-05T04:27:21.104Z,5.45
2023-05-05T04:30:11.346Z,5.20
2023-05-05T04:33:01.095Z,4.70
2023-05-05T04:35:48.826Z,4.60
2023-05-05T04:38:36.868Z,4.38
2023-05-05T04:41:24.174Z,4.38
2023-05-05T04:44:11.304Z,5.05
2023-05-05T04:47:00.404Z,4.00
2023-05-05T04:49:47.691Z,4.35
2023-05-05T04:52:34.917Z,4.32
2023-05-05T04:55:22.050Z,4.30
2023-05-05T04:58:09.255Z,4.47
2023-05-05T05:00:56.469Z,4.60
2023-05-05T05:03:44.011Z,4.50
2023-05-05T05:06:33.575Z,5.50
2023-05-05T05:09:20.854Z,4.50
2023-05-05T05:12:10.187Z,4.97
2023-05-05T05:15:02.132Z,4.93
2023-05-05T05:17:49.481Z,5.22
2023-05-05T05:20:41.218Z,4.80
2023-05-05T05:23:28.355Z,4.73
2023-05-05T05:26:16.519Z,4.28
2023-05-05T05:29:07.373Z,4.93
2023-05-05T05:31:54.597Z,4.65
2023-05-05T05:34:42.395Z,4.15
2023-05-05T05:37:31.133Z,4.10
2023-05-05T05:40:23.139Z,3.50
2023-05-05T05:43:12.990Z,4.00
2023-05-05T05:46:02.478Z,3.30
2023-05-05T05:48:49.710Z,4.10
2023-05-05T05:51:36.959Z,3.35
2023-05-05T05:54:24.179Z,3.58
2023-05-05T05:57:11.552Z,3.53
2023-05-05T06:00:00.483Z,3.33
2023-05-05T06:02:49.170Z,3.85
2023-05-05T06:05:38.511Z,3.20
2023-05-05T06:08:27.997Z,3.30
2023-05-05T06:11:15.296Z,3.53
2023-05-05T06:14:02.560Z,3.15
2023-05-05T06:16:49.856Z,3.70
2023-05-05T06:19:39.890Z,3.35
2023-05-05T06:22:27.171Z,3.13
2023-05-05T06:25:14.452Z,3.60
2023-05-05T06:28:05.745Z,3.15
2023-05-05T06:30:53.119Z,3.13
2023-05-05T06:33:40.319Z,3.35
2023-05-05T06:36:30.005Z,4.80
2023-05-05T06:39:17.642Z,3.90
2023-05-05T06:42:07.197Z,3.10
2023-05-05T06:44:54.692Z,2.70
2023-05-05T06:47:42.878Z,2.90
2023-05-05T06:50:30.358Z,2.72
2023-05-05T06:53:17.915Z,2.47
2023-05-05T06:56:05.679Z,2.33
2023-05-05T06:58:52.994Z,2.30
2023-05-05T07:01:41.672Z,1.90
2023-05-05T07:04:29.206Z,1.98
2023-05-05T07:07:16.954Z,2.65
2023-05-05T07:10:04.910Z,2.78
2023-05-05T07:12:56.166Z,2.20
2023-05-05T07:15:46.830Z,2.35
2023-05-05T07:18:34.296Z,2.65
2023-05-05T07:21:23.826Z,2.65
2023-05-05T07:24:11.216Z,2.85
2023-05-05T07:26:59.355Z,2.47
2023-05-05T07:29:46.812Z,2.58
2023-05-05T07:32:38.439Z,2.65
2023-05-05T07:35:26.577Z,2.83
2023-05-05T07:38:14.193Z,3.55
2023-05-05T07:41:01.545Z,3.47
2023-05-05T07:43:49.048Z,3.28
2023-05-05T07:46:36.727Z,3.30
2023-05-05T07:49:26.984Z,3.90
2023-05-05T07:52:14.410Z,3.75
2023-05-05T07:55:01.978Z,4.10
2023-05-05T07:57:49.896Z,4.20
2023-05-05T08:00:37.284Z,4.30
2023-05-05T08:03:27.718Z,4.57
2023-05-05T08:06:16.933Z,4.18
2023-05-05T08:09:07.804Z,4.50
2023-05-05T08:11:55.109Z,4.82
2023-05-05T08:14:44.945Z,5.30
2023-05-05T08:17:47.835Z,5.10
2023-05-05T08:20:35.343Z,5.32
2023-05-05T08:23:22.865Z,5.60
2023-05-05T08:26:10.308Z,6.00
2023-05-05T08:29:00.901Z,6.22
2023-05-05T08:31:48.751Z,6.88
2023-05-05T08:34:36.275Z,5.40
2023-05-05T08:37:23.700Z,5.05
2023-05-05T08:40:16.415Z,6.07
2023-05-05T08:45:59.930Z,4.65
2023-05-05T08:48:49.869Z,4.68
2023-05-05T08:51:42.429Z,4.30
2023-05-05T08:57:25.228Z,4.03
2023-05-05T09:00:16.601Z,3.97
2023-05-05T09:03:05.938Z,4.13
2023-05-05T09:05:53.792Z,4.10
2023-05-05T09:08:43.736Z,3.88
2023-05-05T09:11:32.644Z,4.40
2023-05-05T09:14:20.120Z,5.35
2023-05-05T09:17:22.054Z,4.05
2023-05-05T09:20:15.577Z,4.40
2023-05-05T09:23:20.061Z,4.35
2023-05-05T09:26:12.969Z,4.32
2023-05-05T09:29:04.560Z,4.40
2023-05-05T09:32:09.056Z,3.78
2023-05-05T09:35:02.635Z,3.55
2023-05-05T09:37:50.251Z,3.85
2023-05-05T09:40:51.413Z,3.42
2023-05-05T09:43:52.262Z,2.97
2023-05-05T09:46:51.144Z,3.15
2023-05-05T09:49:39.012Z,2.70
2023-05-05T09:52:28.481Z,3.53
2023-05-05T10:00:40.041Z,2.55
2023-05-05T10:03:28.953Z,2.15
2023-05-05T10:06:16.488Z,2.40
2023-05-05T10:09:03.778Z,2.20
2023-05-05T10:11:51.524Z,2.03
2023-05-05T10:14:38.874Z,2.35
2023-05-05T10:17:32.835Z,2.03
2023-05-05T10:20:24.424Z,2.20
2023-05-05T10:23:17.486Z,2.60
2023-05-05T10:26:07.667Z,2.08
2023-05-05T10:29:05.793Z,2.33
2023-05-05T10:31:56.714Z,2.00
2023-05-05T10:35:02.868Z,2.20
2023-05-05T10:37:52.367Z,2.00
2023-05-05T10:40:48.807Z,2.30
2023-05-05T10:43:39.033Z,1.92
2023-05-05T10:46:30.009Z,2.28
2023-05-05T10:49:45.179Z,2.72
2023-05-05T10:52:43.213Z,2.53
2023-05-05T10:55:45.569Z,2.55
2023-05-05T10:58:43.703Z,2.53
2023-05-05T11:01:39.542Z,2.25
2023-05-05T11:04:29.108Z,2.42
2023-05-05T11:07:23.853Z,2.63
2023-05-05T11:10:13.251Z,2.08
2023-05-05T11:13:02.595Z,2.05
2023-05-05T11:15:52.053Z,2.28
2023-05-05T11:18:40.218Z,2.08
2023-05-05T11:21:27.986Z,2.30
2023-05-05T11:24:33.535Z,1.83
2023-05-05T11:27:20.826Z,2.10
2023-05-05T11:30:09.889Z,1.95
2023-05-05T11:33:32.056Z,1.70
2023-05-05T11:36:21.142Z,1.43
2023-05-05T11:39:19.201Z,1.60
2023-05-05T11:42:27.444Z,2.00
2023-05-05T11:45:25.011Z,1.83
2023-05-05T11:48:27.314Z,1.70
2023-05-05T11:51:18.726Z,2.78
2023-05-05T11:54:08.725Z,1.57
2023-05-05T11:57:10.349Z,1.90
2023-05-05T12:00:09.605Z,1.95
2023-05-05T12:02:59.989Z,2.35
2023-05-05T12:05:53.673Z,2.25
2023-05-05T12:08:41.881Z,2.05
2023-05-05T12:11:29.311Z,2.40
2023-05-05T12:14:21.580Z,2.15
2023-05-05T12:17:11.556Z,2.30
2023-05-05T12:19:58.926Z,2.20
2023-05-05T12:22:46.514Z,2.08
2023-05-05T12:25:39.264Z,1.70
2023-05-05T12:28:46.563Z,1.67
2023-05-05T12:31:41.641Z,1.65
2023-05-05T12:34:29.517Z,1.50
2023-05-05T12:37:19.296Z,1.58
2023-05-05T12:40:48.203Z,1.30
2023-05-05T12:43:35.984Z,1.83
2023-05-05T12:46:23.950Z,1.42
2023-05-05T12:49:11.637Z,1.50
2023-05-05T12:52:01.873Z,1.60
2023-05-05T12:55:07.757Z,1.27
2023-05-05T12:58:04.691Z,1.42
2023-05-05T13:01:11.121Z,1.48
2023-05-05T13:04:07.864Z,1.10
2023-05-05T13:07:14.416Z,1.35
2023-05-05T13:10:10.648Z,1.38
2023-05-05T13:12:58.608Z,1.40
2023-05-05T13:15:46.131Z,1.33
2023-05-05T13:18:46.781Z,1.48
2023-05-05T13:21:34.355Z,1.25
2023-05-05T13:24:38.135Z,1.45
2023-05-05T13:27:34.524Z,1.10
2023-05-05T13:30:21.746Z,1.10
2023-05-05T13:33:08.903Z,1.30
2023-05-05T13:35:56.348Z,1.35
2023-05-05T13:38:43.677Z,1.20
2023-05-05T13:41:33.255Z,1.50
2023-05-05T13:44:20.795Z,1.30
2023-05-05T13:47:08.475Z,1.48
2023-05-05T13:49:58.134Z,1.40
2023-05-05T13:52:45.421Z,1.27
2023-05-05T13:55:32.601Z,1.48
2023-05-05T13:58:19.944Z,1.50
2023-05-05T14:01:10.765Z,1.33
2023-05-05T14:04:02.184Z,1.60
2023-05-05T14:06:54.018Z,2.00
2023-05-05T14:09:43.655Z,1.52
2023-05-05T14:23:21.075Z,1.73
2023-05-05T14:26:09.058Z,1.98
2023-05-05T14:28:56.658Z,1.80
2023-05-05T14:31:44.223Z,1.80
2023-05-05T14:34:33.817Z,1.70
2023-05-05T14:37:20.957Z,2.40
2023-05-05T14:40:08.739Z,1.75
2023-05-05T14:42:55.894Z,1.70
2023-05-05T14:45:44.356Z,1.67
2023-05-05T14:48:32.306Z,1.85
2023-05-05T14:51:19.612Z,1.80
2023-05-05T14:54:14.312Z,1.80
2023-05-05T14:57:08.139Z,2.15
2023-05-05T14:59:57.401Z,2.95
2023-05-05T15:02:44.799Z,2.42
2023-05-05T15:05:32.103Z,2.00
2023-05-05T15:08:22.088Z,2.15
2023-05-05T15:11:11.574Z,3.80
2023-05-05T15:13:58.826Z,2.55
2023-05-05T15:16:48.340Z,2.15
2023-05-05T15:19:37.710Z,2.20
2023-05-05T15:22:24.917Z,1.90
2023-05-05T15:25:14.819Z,1.83
2023-05-05T15:28:03.004Z,2.42
2023-05-05T15:30:50.606Z,1.70
2023-05-05T15:33:37.863Z,1.90
2023-05-05T15:36:28.657Z,2.10
2023-05-05T15:39:15.862Z,2.25
2023-05-05T15:42:03.940Z,2.47
2023-05-05T15:44:56.672Z,2.75
2023-05-05T15:47:46.774Z,3.22
2023-05-05T15:50:34.419Z,3.50
2023-05-05T15:53:21.622Z,4.25
2023-05-05T15:56:08.854Z,3.75
2023-05-05T15:58:56.922Z,4.70
2023-05-05T16:01:46.883Z,5.40
2023-05-05T16:04:34.433Z,5.50
2023-05-05T16:07:21.963Z,6.20
2023-05-05T16:10:14.392Z,7.15
2023-05-05T16:13:04.533Z,6.63
2023-05-05T16:15:52.083Z,7.10
2023-05-05T16:18:40.069Z,7.40
2023-05-05T16:21:32.275Z,7.55
2023-05-05T16:24:22.354Z,9.50
2023-05-05T16:27:09.854Z,9.43
2023-05-05T16:29:59.808Z,9.77
2023-05-05T16:32:54.035Z,11.20
2023-05-05T16:35:44.348Z,10.35
2023-05-05T16:38:36.324Z,10.50
2023-05-05T16:41:24.088Z,10.77
2023-05-05T16:44:11.524Z,11.65
2023-05-05T16:46:58.765Z,12.77
2023-05-05T16:49:46.145Z,12.40
2023-05-05T16:52:33.516Z,11.48
2023-05-05T16:55:21.152Z,12.45
2023-05-05T16:58:08.629Z,10.05
2023-05-05T17:00:56.737Z,8.60
2023-05-05T17:03:44.353Z,8.95
2023-05-05T17:06:32.934Z,8.50
2023-05-05T17:09:24.829Z,7.93
2023-05-05T17:12:12.424Z,8.80
2023-05-05T17:14:59.936Z,9.23
2023-05-05T17:17:47.414Z,8.65
2023-05-05T17:20:36.626Z,9.82
2023-05-05T17:23:24.345Z,8.80
2023-05-05T17:26:12.099Z,11.20
2023-05-05T17:29:04.297Z,9.88
2023-05-05T17:31:55.142Z,9.63
2023-05-05T17:34:42.416Z,9.25
2023-05-05T17:37:30.223Z,7.93
2023-05-05T17:40:19.899Z,8.00
2023-05-05T17:43:09.676Z,7.88
2023-05-05T17:45:59.147Z,8.25
2023-05-05T17:48:46.939Z,8.02
2023-05-05T17:51:39.381Z,7.03
2023-05-05T17:54:27.385Z,7.40
2023-05-05T17:57:17.700Z,7.63
2023-05-05T18:00:09.228Z,7.82
2023-05-05T18:03:00.502Z,7.30
2023-05-05T18:05:55.299Z,7.05
2023-05-05T18:08:45.427Z,7.18
2023-05-05T18:11:35.503Z,6.70
2023-05-05T18:14:27.041Z,6.35
2023-05-05T18:17:21.348Z,6.28
2023-05-05T18:20:09.359Z,6.30
2023-05-05T18:22:56.744Z,6.85
2023-05-05T18:25:45.678Z,6.38
2023-05-05T18:28:37.302Z,6.72
2023-05-05T18:31:25.069Z,6.60
2023-05-05T18:34:12.486Z,7.43
2023-05-05T18:37:00.573Z,7.32
2023-05-05T18:39:47.979Z,7.82
2023-05-05T18:42:35.695Z,8.35
2023-05-05T18:45:23.237Z,9.43
2023-05-05T18:48:13.103Z,9.20
2023-05-05T18:51:04.709Z,9.15
2023-05-05T18:53:52.112Z,11.68
2023-05-05T18:56:39.453Z,11.27
2023-05-05T18:59:27.512Z,11.13
2023-05-05T19:02:14.950Z,11.05
2023-05-05T19:05:02.666Z,10.77
2023-05-05T19:07:50.363Z,11.77
2023-05-05T19:10:37.901Z,12.55
2023-05-05T19:13:25.451Z,11.23
2023-05-05T19:16:17.179Z,13.38
2023-05-05T19:19:04.560Z,8.57
2023-05-05T19:21:54.065Z,13.18
2023-05-05T19:24:41.303Z,13.80
2023-05-05T19:27:28.603Z,13.68
2023-05-05T19:30:18.403Z,12.20
2023-05-05T19:33:09.115Z,12.82
2023-05-05T19:35:56.706Z,13.38
2023-05-05T19:38:46.511Z,13.07
2023-05-05T19:41:35.599Z,12.52
2023-05-05T19:44:22.932Z,12.27
2023-05-05T19:47:11.051Z,11.80
2023-05-05T19:49:58.436Z,13.10
2023-05-05T19:52:45.957Z,12.32
2023-05-05T19:55:33.382Z,11.07
2023-05-05T19:58:23.029Z,10.25
2023-05-05T20:01:12.839Z,11.20
2023-05-05T20:04:00.808Z,10.73
2023-05-05T20:06:48.404Z,10.15
2023-05-05T20:09:37.825Z,11.00
2023-05-05T20:12:30.149Z,10.85
2023-05-05T20:15:20.484Z,10.88
2023-05-05T20:18:07.866Z,10.55
2023-05-05T20:20:56.417Z,10.93
2023-05-05T20:23:45.300Z,12.60
2023-05-05T20:26:32.719Z,12.65
2023-05-05T20:29:20.421Z,11.45
2023-05-05T20:32:07.842Z,10.18
2023-05-05T20:34:54.955Z,13.43
2023-05-05T20:37:42.238Z,19.50
2023-05-05T20:40:30.224Z,14.75
2023-05-05T20:43:19.619Z,12.75
2023-05-05T20:46:13.106Z,12.82
2023-05-05T20:49:00.820Z,11.10
2023-05-05T20:51:48.939Z,11.48
2023-05-05T20:54:36.207Z,12.98
2023-05-05T20:57:26.024Z,11.73
2023-05-05T21:00:15.700Z,10.60
2023-05-05T21:03:03.082Z,12.00
2023-05-05T21:05:55.249Z,12.68
2023-05-05T21:08:42.533Z,13.20
2023-05-05T21:11:29.731Z,13.77
2023-05-05T21:14:16.957Z,13.63
2023-05-05T21:17:04.171Z,14.15
2023-05-05T21:19:54.346Z,13.55
2023-05-05T21:22:41.627Z,15.10
2023-05-05T21:25:31.388Z,15.15
2023-05-05T21:28:20.926Z,13.15
2023-05-05T21:31:21.027Z,13.23
2023-05-05T21:34:09.420Z,12.70
2023-05-05T21:36:57.253Z,15.82
2023-05-05T21:39:44.805Z,14.43
2023-05-05T21:42:32.026Z,15.25
2023-05-05T21:45:19.240Z,13.73
2023-05-05T21:48:06.907Z,12.00
2023-05-05T21:50:54.570Z,12.05
2023-05-05T21:53:41.871Z,11.90
2023-05-05T21:56:29.091Z,11.40
2023-05-05T21:59:17.163Z,11.07
2023-05-05T22:02:04.620Z,10.95
2023-05-05T22:04:52.024Z,9.73
2023-05-05T22:07:42.133Z,8.77
2023-05-05T22:10:29.288Z,7.78
2023-05-05T22:13:16.639Z,9.40
2023-05-05T22:16:04.015Z,9.27
2023-05-05T22:18:51.623Z,11.30
2023-05-05T22:21:44.085Z,11.07
2023-05-05T22:24:35.737Z,12.07
2023-05-05T22:27:22.999Z,12.38
2023-05-05T22:30:13.155Z,13.45
2023-05-05T22:33:00.397Z,14.82
2023-05-05T22:35:52.042Z,14.15
2023-05-05T22:38:41.416Z,11.25
2023-05-05T22:41:28.630Z,11.07
2023-05-05T22:44:15.839Z,10.60
2023-05-05T22:47:04.001Z,11.13
2023-05-05T22:49:51.420Z,8.38
2023-05-05T22:52:40.949Z,8.32
2023-05-05T22:55:28.198Z,7.00
2023-05-05T22:58:17.448Z,6.28
2023-05-05T23:01:04.644Z,6.13
2023-05-05T23:03:54.357Z,7.35
2023-05-05T23:06:44.949Z,7.47
2023-05-05T23:09:32.202Z,6.97
2023-05-05T23:12:19.514Z,6.93
2023-05-05T23:15:08.208Z,5.35
2023-05-05T23:17:55.788Z,6.43
2023-05-05T23:20:42.935Z,4.93
2023-05-05T23:23:31.238Z,5.05
2023-05-05T23:26:18.380Z,4.38
2023-05-05T23:29:06.076Z,4.63
2023-05-05T23:31:53.200Z,3.55
2023-05-05T23:34:40.342Z,3.53
2023-05-05T23:37:27.783Z,4.20
2023-05-05T23:40:14.989Z,3.80
2023-05-05T23:43:02.157Z,3.38
2023-05-05T23:45:49.346Z,4.13
2023-05-05T23:48:36.521Z,3.45
2023-05-05T23:51:23.814Z,3.60
2023-05-05T23:54:10.914Z,4.22
2023-05-05T23:57:00.317Z,4.68
2023-05-05T23:59:47.440Z,4.38
